Time;durP1;ratioP1;P1;durP2;ratioP2;P2;SDS_P1;SDS_P2;PMS_P1;PMS_P2;Temp;Humidity;BMP_temperature;BMP_pressure;BME280_temperature;BME280_humidity;BME280_pressure;Samples;Min_cycle;Max_cycle;Signal;HPM_P1;HPM_P2
2022/04/29 00:00:07;;;;;;;5.63;3.25;;;;;;;;;;4780152;29;20039;-82
2022/04/29 00:02:32;;;;;;;6.45;2.90;;;;;;;;;;4782848;29;20119;-84
2022/04/29 00:04:58;;;;;;;7.03;3.05;;;;;;;;;;4787570;29;20031;-82
2022/04/29 00:07:23;;;;;;;5.72;2.80;;;;;;;;;;4781566;29;20494;-80
2022/04/29 00:09:49;;;;;;;6.38;2.75;;;;;;;;;;4768361;29;20031;-82
2022/04/29 00:12:14;;;;;;;6.18;2.53;;;;;;;;;;4784089;29;20416;-90
2022/04/29 00:14:40;;;;;;;7.97;2.80;;;;;;;;;;4781714;29;20042;-82
2022/04/29 00:17:05;;;;;;;5.78;2.90;;;;;;;;;;4781307;29;20144;-83
2022/04/29 00:19:32;;;;;;;4.88;2.90;;;;;;;;;;4782908;29;21126;-82
2022/04/29 00:21:58;;;;;;;5.80;2.97;;;;;;;;;;4784317;29;20483;-88
2022/04/29 00:24:23;;;;;;;6.25;2.72;;;;;;;;;;4781490;29;20046;-82
2022/04/29 00:26:49;;;;;;;6.75;2.95;;;;;;;;;;4766007;29;20561;-83
2022/04/29 00:29:15;;;;;;;6.18;3.00;;;;;;;;;;4768064;29;20041;-84
2022/04/29 00:31:41;;;;;;;7.65;3.25;;;;;;;;;;4780188;29;20039;-80
2022/04/29 00:34:06;;;;;;;4.57;2.92;;;;;;;;;;4782593;29;20041;-84
2022/04/29 00:36:32;;;;;;;6.63;2.97;;;;;;;;;;4770655;29;20042;-86
2022/04/29 00:38:57;;;;;;;4.75;2.60;;;;;;;;;;4781492;29;20740;-83
2022/04/29 00:41:23;;;;;;;5.45;2.97;;;;;;;;;;4780678;29;20567;-84
2022/04/29 00:44:00;;;;;;;5.43;2.88;;;;;;;;;;4768254;29;20054;-82
2022/04/29 00:46:25;;;;;;;5.32;2.95;;;;;;;;;;4779674;29;20441;-80
2022/04/29 00:48:50;;;;;;;6.38;3.10;;;;;;;;;;4781418;29;20140;-81
2022/04/29 00:51:16;;;;;;;5.75;2.75;;;;;;;;;;4782513;29;21544;-84
2022/04/29 00:53:41;;;;;;;4.70;3.00;;;;;;;;;;4768660;29;20062;-82
2022/04/29 00:56:10;;;;;;;6.18;2.97;;;;;;;;;;4767145;29;20100;-82
2022/04/29 00:58:40;;;;;;;6.40;2.67;;;;;;;;;;4781600;29;20046;-81
2022/04/29 01:01:06;;;;;;;5.95;2.75;;;;;;;;;;4780784;29;20031;-80
2022/04/29 01:03:34;;;;;;;5.93;3.05;;;;;;;;;;4769446;29;20057;-89
2022/04/29 01:05:59;;;;;;;6.45;2.90;;;;;;;;;;4785106;29;20031;-82
2022/04/29 01:08:24;;;;;;;6.25;2.88;;;;;;;;;;4763861;30;20030;-87
2022/04/29 01:10:50;;;;;;;7.18;2.95;;;;;;;;;;4781167;29;20443;-83
2022/04/29 01:13:17;;;;;;;8.27;2.95;;;;;;;;;;4769110;29;20027;-85
2022/04/29 01:15:44;;;;;;;7.55;3.00;;;;;;;;;;4772692;29;20058;-84
2022/04/29 01:18:10;;;;;;;5.25;2.90;;;;;;;;;;4786303;29;20137;-81
2022/04/29 01:20:36;;;;;;;6.07;2.92;;;;;;;;;;4784978;29;20038;-88
2022/04/29 01:23:07;;;;;;;6.65;3.38;;;;;;;;;;4782494;29;20492;-90
2022/04/29 01:25:32;;;;;;;4.45;2.72;;;;;;;;;;4781980;29;20035;-84
2022/04/29 01:27:58;;;;;;;7.22;3.05;;;;;;;;;;4788180;29;20031;-89
2022/04/29 01:30:23;;;;;;;7.20;3.10;;;;;;;;;;4769990;29;20068;-89
2022/04/29 01:32:49;;;;;;;6.30;3.30;;;;;;;;;;4779926;29;20102;-90
2022/04/29 01:35:15;;;;;;;4.60;2.85;;;;;;;;;;4768934;29;20034;-82
2022/04/29 01:37:42;;;;;;;5.40;2.90;;;;;;;;;;4782285;29;20107;-83
2022/04/29 01:40:09;;;;;;;6.18;2.97;;;;;;;;;;4783638;29;20839;-89
2022/04/29 01:42:36;;;;;;;4.93;2.78;;;;;;;;;;4792474;29;20034;-84
2022/04/29 01:45:01;;;;;;;6.55;3.47;;;;;;;;;;4800090;29;20031;-82
2022/04/29 01:47:27;;;;;;;8.70;3.15;;;;;;;;;;4784606;29;20027;-83
2022/04/29 01:49:52;;;;;;;6.20;3.15;;;;;;;;;;4783575;29;20042;-83
2022/04/29 01:52:17;;;;;;;5.70;2.85;;;;;;;;;;4799771;29;20035;-84
2022/04/29 01:54:42;;;;;;;5.75;3.20;;;;;;;;;;4783211;29;20386;-83
2022/04/29 01:57:09;;;;;;;5.32;3.05;;;;;;;;;;4784768;29;20452;-85
2022/04/29 01:59:35;;;;;;;4.63;3.03;;;;;;;;;;4797216;29;20046;-88
2022/04/29 02:02:03;;;;;;;8.40;3.47;;;;;;;;;;4797114;29;21244;-85
2022/04/29 02:04:28;;;;;;;8.75;3.40;;;;;;;;;;4780869;29;20031;-88
2022/04/29 02:06:53;;;;;;;4.85;3.13;;;;;;;;;;4782563;29;20095;-83
2022/04/29 02:09:19;;;;;;;5.15;3.00;;;;;;;;;;4795274;29;20046;-82
2022/04/29 02:12:04;;;;;;;6.45;3.05;;;;;;;;;;4797896;29;20118;-88
2022/04/29 02:14:37;;;;;;;5.95;3.40;;;;;;;;;;4785799;29;20177;-83
2022/04/29 02:17:04;;;;;;;7.95;3.83;;;;;;;;;;4798598;29;20189;-82
2022/04/29 02:19:30;;;;;;;6.25;3.50;;;;;;;;;;4787822;29;20456;-80
2022/04/29 02:21:56;;;;;;;7.70;3.80;;;;;;;;;;4799091;29;20030;-82
2022/04/29 02:24:22;;;;;;;6.53;3.35;;;;;;;;;;4784928;29;20033;-81
2022/04/29 02:26:48;;;;;;;5.55;3.10;;;;;;;;;;4804471;29;20489;-82
2022/04/29 02:29:13;;;;;;;6.03;3.70;;;;;;;;;;4798596;29;20038;-90
2022/04/29 02:31:39;;;;;;;5.43;3.45;;;;;;;;;;4801057;29;20129;-85
2022/04/29 02:34:04;;;;;;;6.32;3.47;;;;;;;;;;4806006;29;20031;-88
2022/04/29 02:36:29;;;;;;;6.95;3.88;;;;;;;;;;4804549;29;20034;-89
2022/04/29 02:38:55;;;;;;;7.97;4.10;;;;;;;;;;4787411;29;20097;-80
2022/04/29 02:41:20;;;;;;;7.15;3.85;;;;;;;;;;4805839;29;20034;-84
2022/04/29 02:43:45;;;;;;;5.70;3.38;;;;;;;;;;4786545;29;20030;-80
2022/04/29 02:46:11;;;;;;;6.10;3.70;;;;;;;;;;4804593;29;20035;-82
2022/04/29 02:48:36;;;;;;;5.28;3.70;;;;;;;;;;4802121;29;20043;-82
2022/04/29 02:51:04;;;;;;;6.43;3.78;;;;;;;;;;4790812;29;20027;-80
2022/04/29 02:53:30;;;;;;;6.80;3.70;;;;;;;;;;4798243;29;21266;-84
2022/04/29 02:55:56;;;;;;;7.47;3.90;;;;;;;;;;4802289;29;20513;-82
2022/04/29 02:58:21;;;;;;;7.55;4.00;;;;;;;;;;4805208;29;20069;-82
2022/04/29 03:00:46;;;;;;;7.80;3.90;;;;;;;;;;4783755;29;20069;-80
2022/04/29 03:03:12;;;;;;;6.50;3.70;;;;;;;;;;4782141;29;20087;-83
2022/04/29 03:05:39;;;;;;;6.10;4.22;;;;;;;;;;4799155;29;20038;-82
2022/04/29 03:08:05;;;;;;;9.80;4.20;;;;;;;;;;4797892;29;20070;-83
2022/04/29 03:10:30;;;;;;;10.80;4.53;;;;;;;;;;4805121;29;20055;-84
2022/04/29 03:12:55;;;;;;;9.45;4.35;;;;;;;;;;4803271;29;20063;-80
2022/04/29 03:15:25;;;;;;;7.07;4.15;;;;;;;;;;4804048;29;20498;-80
2022/04/29 03:20:37;;;;;;;10.95;4.35;;;;;;;;;;4804852;29;20044;-80
2022/04/29 03:23:04;;;;;;;9.95;4.93;;;;;;;;;;4786820;29;20031;-82
2022/04/29 03:25:29;;;;;;;9.77;5.03;;;;;;;;;;4786489;29;20486;-85
2022/04/29 03:27:54;;;;;;;8.73;4.28;;;;;;;;;;4804234;29;20041;-82
2022/04/29 03:30:20;;;;;;;8.38;4.70;;;;;;;;;;4788309;29;20069;-81
2022/04/29 03:32:57;;;;;;;7.50;4.63;;;;;;;;;;4789755;29;20031;-89
2022/04/29 03:35:22;;;;;;;8.90;4.80;;;;;;;;;;4805456;29;20505;-80
2022/04/29 03:37:51;;;;;;;9.65;4.45;;;;;;;;;;4804387;29;20071;-83
2022/04/29 03:40:21;;;;;;;7.18;4.13;;;;;;;;;;4803236;29;20058;-85
2022/04/29 03:42:47;;;;;;;7.05;4.00;;;;;;;;;;4807236;29;20409;-83
2022/04/29 03:45:13;;;;;;;7.78;4.93;;;;;;;;;;4807581;29;20066;-83
2022/04/29 03:47:38;;;;;;;7.40;4.70;;;;;;;;;;4786798;29;20061;-86
2022/04/29 03:50:05;;;;;;;8.98;4.97;;;;;;;;;;4784626;29;20398;-80
2022/04/29 03:52:30;;;;;;;10.35;4.88;;;;;;;;;;4799521;29;20118;-82
2022/04/29 03:54:56;;;;;;;11.48;4.88;;;;;;;;;;4806641;29;20110;-82
2022/04/29 03:57:21;;;;;;;8.10;4.70;;;;;;;;;;4786236;29;20482;-82
2022/04/29 03:59:48;;;;;;;7.70;4.95;;;;;;;;;;4802642;29;20471;-82
2022/04/29 04:02:13;;;;;;;8.00;4.60;;;;;;;;;;4799359;29;20041;-85
2022/04/29 04:04:39;;;;;;;8.60;4.45;;;;;;;;;;4784219;29;20027;-87
2022/04/29 04:07:04;;;;;;;8.07;4.80;;;;;;;;;;4805856;29;20031;-84
2022/04/29 04:09:29;;;;;;;8.10;4.90;;;;;;;;;;4803052;29;20414;-82
2022/04/29 04:11:55;;;;;;;9.70;4.82;;;;;;;;;;4794646;29;20041;-82
2022/04/29 04:14:20;;;;;;;8.57;4.90;;;;;;;;;;4783368;29;20558;-83
2022/04/29 04:16:47;;;;;;;7.15;4.45;;;;;;;;;;4802499;29;20117;-84
2022/04/29 04:19:12;;;;;;;8.95;5.03;;;;;;;;;;4803525;29;20039;-81
2022/04/29 04:21:39;;;;;;;6.97;4.25;;;;;;;;;;4785819;29;20190;-82
2022/04/29 04:24:05;;;;;;;9.40;5.10;;;;;;;;;;4785967;29;20865;-84
2022/04/29 04:26:31;;;;;;;9.32;5.55;;;;;;;;;;4804547;29;20035;-80
2022/04/29 04:28:57;;;;;;;9.88;4.55;;;;;;;;;;4788096;29;20103;-89
2022/04/29 04:31:24;;;;;;;6.97;4.55;;;;;;;;;;4798321;29;20089;-80
2022/04/29 04:33:49;;;;;;;8.73;4.65;;;;;;;;;;4788574;29;20069;-84
2022/04/29 04:36:15;;;;;;;8.63;5.13;;;;;;;;;;4806804;29;20069;-88
2022/04/29 04:38:42;;;;;;;9.52;5.15;;;;;;;;;;4801798;29;20120;-89
2022/04/29 04:41:08;;;;;;;8.38;4.70;;;;;;;;;;4809441;29;20050;-87
2022/04/29 04:43:33;;;;;;;10.77;4.90;;;;;;;;;;4805632;29;20392;-82
2022/04/29 04:45:59;;;;;;;10.88;4.57;;;;;;;;;;4800705;29;20109;-88
2022/04/29 04:48:24;;;;;;;8.88;4.72;;;;;;;;;;4784777;29;20046;-87
2022/04/29 04:50:49;;;;;;;8.43;5.00;;;;;;;;;;4804875;29;20039;-80
2022/04/29 04:53:15;;;;;;;8.27;4.80;;;;;;;;;;4787761;29;20065;-80
2022/04/29 04:55:40;;;;;;;10.75;4.95;;;;;;;;;;4812940;29;20393;-83
2022/04/29 04:58:06;;;;;;;9.75;4.70;;;;;;;;;;4784726;29;20031;-81
2022/04/29 05:00:32;;;;;;;8.93;5.03;;;;;;;;;;4801938;29;20035;-83
2022/04/29 05:02:58;;;;;;;7.50;4.68;;;;;;;;;;4795862;29;20551;-81
2022/04/29 05:05:23;;;;;;;11.00;5.30;;;;;;;;;;4801772;29;20035;-80
2022/04/29 05:07:49;;;;;;;7.00;4.55;;;;;;;;;;4802323;29;21693;-82
2022/04/29 05:10:14;;;;;;;9.02;5.35;;;;;;;;;;4783834;29;20038;-82
2022/04/29 05:12:41;;;;;;;8.45;4.68;;;;;;;;;;4789804;29;20050;-89
2022/04/29 05:15:07;;;;;;;9.57;4.95;;;;;;;;;;4788362;29;20505;-84
2022/04/29 05:17:32;;;;;;;10.88;5.65;;;;;;;;;;4802593;29;20083;-82
2022/04/29 05:19:58;;;;;;;7.90;4.68;;;;;;;;;;4800059;29;20045;-82
2022/04/29 05:22:23;;;;;;;9.70;5.00;;;;;;;;;;4800911;29;21837;-90
2022/04/29 05:24:48;;;;;;;6.55;4.55;;;;;;;;;;4784852;29;20038;-87
2022/04/29 05:27:14;;;;;;;9.65;4.78;;;;;;;;;;4787274;29;20046;-88
2022/04/29 05:29:39;;;;;;;9.80;5.00;;;;;;;;;;4781660;29;20043;-83
2022/04/29 05:32:06;;;;;;;11.60;4.93;;;;;;;;;;4802167;29;20065;-83
2022/04/29 05:34:33;;;;;;;11.95;5.57;;;;;;;;;;4805402;29;20035;-88
2022/04/29 05:37:00;;;;;;;11.18;4.93;;;;;;;;;;4784790;29;20034;-83
2022/04/29 05:42:14;;;;;;;7.55;4.85;;;;;;;;;;4810049;29;20044;-81
2022/04/29 05:44:40;;;;;;;9.82;5.10;;;;;;;;;;4799692;29;20037;-80
2022/04/29 05:47:06;;;;;;;11.70;5.28;;;;;;;;;;4804236;29;20117;-82
2022/04/29 05:49:31;;;;;;;7.60;4.80;;;;;;;;;;4798044;29;20114;-80
2022/04/29 05:52:03;;;;;;;9.95;5.15;;;;;;;;;;4801257;29;20045;-80
2022/04/29 05:54:30;;;;;;;7.28;4.68;;;;;;;;;;4787109;29;20041;-84
2022/04/29 05:56:56;;;;;;;9.02;5.13;;;;;;;;;;4781336;29;20035;-82
2022/04/29 05:59:22;;;;;;;10.00;4.93;;;;;;;;;;4785255;29;20202;-80
2022/04/29 06:01:47;;;;;;;9.68;5.25;;;;;;;;;;4786874;29;20038;-82
2022/04/29 06:04:12;;;;;;;10.57;5.60;;;;;;;;;;4786538;29;21068;-80
2022/04/29 06:06:38;;;;;;;9.32;4.72;;;;;;;;;;4792162;29;20417;-84
2022/04/29 06:09:04;;;;;;;9.77;5.03;;;;;;;;;;4786170;29;20077;-81
2022/04/29 06:11:29;;;;;;;10.52;4.22;;;;;;;;;;4799842;29;20053;-82
2022/04/29 06:13:55;;;;;;;11.30;5.50;;;;;;;;;;4804418;29;20026;-85
2022/04/29 06:16:20;;;;;;;11.60;4.95;;;;;;;;;;4803881;29;20118;-81
2022/04/29 06:18:46;;;;;;;11.52;5.03;;;;;;;;;;4786123;29;20062;-83
2022/04/29 06:21:11;;;;;;;8.75;4.75;;;;;;;;;;4798266;29;20023;-83
2022/04/29 06:23:37;;;;;;;11.40;5.35;;;;;;;;;;4797677;29;20030;-79
2022/04/29 06:26:02;;;;;;;11.68;5.30;;;;;;;;;;4801740;29;20093;-82
2022/04/29 06:28:28;;;;;;;8.38;4.95;;;;;;;;;;4783118;29;20047;-85
2022/04/29 06:30:53;;;;;;;8.80;5.18;;;;;;;;;;4781900;29;20022;-80
2022/04/29 06:33:18;;;;;;;12.30;5.75;;;;;;;;;;4796343;29;20066;-83
2022/04/29 06:35:44;;;;;;;8.77;4.28;;;;;;;;;;4782242;29;20067;-81
2022/04/29 06:38:10;;;;;;;9.60;4.55;;;;;;;;;;4779970;29;20053;-86
2022/04/29 06:40:36;;;;;;;7.80;4.88;;;;;;;;;;4782343;29;20070;-82
2022/04/29 06:43:01;;;;;;;10.95;5.68;;;;;;;;;;4795257;29;20122;-81
2022/04/29 06:45:27;;;;;;;9.70;5.68;;;;;;;;;;4796025;29;20035;-87
2022/04/29 06:47:52;;;;;;;8.40;4.40;;;;;;;;;;4783522;29;21508;-80
2022/04/29 06:50:17;;;;;;;10.77;5.10;;;;;;;;;;4794868;29;20030;-81
2022/04/29 06:52:43;;;;;;;7.25;4.45;;;;;;;;;;4795871;29;20035;-86
2022/04/29 06:55:08;;;;;;;9.73;5.32;;;;;;;;;;4781522;29;20039;-88
2022/04/29 06:57:34;;;;;;;8.93;4.55;;;;;;;;;;4796892;29;20027;-80
2022/04/29 07:00:00;;;;;;;9.90;5.45;;;;;;;;;;4789508;29;20099;-85
2022/04/29 07:02:26;;;;;;;11.65;5.40;;;;;;;;;;4800613;29;20041;-82
2022/04/29 07:04:54;;;;;;;10.15;4.97;;;;;;;;;;4800377;29;20473;-80
2022/04/29 07:07:19;;;;;;;7.68;5.03;;;;;;;;;;4806704;29;20122;-89
2022/04/29 07:09:45;;;;;;;9.27;5.03;;;;;;;;;;4789571;29;20545;-85
2022/04/29 07:12:10;;;;;;;8.95;4.90;;;;;;;;;;4782023;29;20034;-81
2022/04/29 07:14:36;;;;;;;11.60;4.72;;;;;;;;;;4802102;29;20035;-80
2022/04/29 07:17:01;;;;;;;10.90;4.55;;;;;;;;;;4800578;29;20023;-86
2022/04/29 07:19:26;;;;;;;10.07;5.22;;;;;;;;;;4778945;29;20031;-88
2022/04/29 07:21:52;;;;;;;10.27;5.72;;;;;;;;;;4785391;29;20122;-84
2022/04/29 07:24:18;;;;;;;14.05;6.20;;;;;;;;;;4796267;29;20035;-81
2022/04/29 07:26:44;;;;;;;10.77;5.05;;;;;;;;;;4802359;29;20037;-83
2022/04/29 07:29:09;;;;;;;11.23;5.35;;;;;;;;;;4790600;29;20064;-78
2022/04/29 07:31:34;;;;;;;7.97;4.55;;;;;;;;;;4803294;29;20482;-79
2022/04/29 07:34:00;;;;;;;9.93;5.07;;;;;;;;;;4799616;29;20393;-79
2022/04/29 07:42:07;;;;;;;12.10;5.13;;;;;;;;;;4793667;29;20122;-80
2022/04/29 07:44:33;;;;;;;8.82;4.85;;;;;;;;;;4804359;29;20136;-84
2022/04/29 07:47:02;;;;;;;12.20;5.55;;;;;;;;;;4790946;29;20057;-82
2022/04/29 07:49:27;;;;;;;9.52;5.43;;;;;;;;;;4804116;29;20126;-81
2022/04/29 07:51:53;;;;;;;10.95;5.68;;;;;;;;;;4801945;29;20453;-81
2022/04/29 07:54:19;;;;;;;8.07;5.35;;;;;;;;;;4805843;29;20038;-80
2022/04/29 07:56:45;;;;;;;12.30;5.10;;;;;;;;;;4792856;29;20054;-82
2022/04/29 07:59:11;;;;;;;10.52;5.78;;;;;;;;;;4804363;29;20039;-87
2022/04/29 08:01:37;;;;;;;10.73;4.78;;;;;;;;;;4805333;29;20034;-90
2022/04/29 08:04:42;;;;;;;9.00;4.88;;;;;;;;;;4801945;29;20066;-88
2022/04/29 08:07:13;;;;;;;9.75;5.18;;;;;;;;;;4786377;29;20038;-89
2022/04/29 08:09:41;;;;;;;9.55;5.40;;;;;;;;;;4791340;29;20493;-83
2022/04/29 08:12:13;;;;;;;8.82;4.95;;;;;;;;;;4806522;29;20037;-82
2022/04/29 08:14:40;;;;;;;9.70;5.35;;;;;;;;;;4805007;29;20481;-78
2022/04/29 08:17:10;;;;;;;9.70;5.10;;;;;;;;;;4798652;29;20110;-84
2022/04/29 08:19:35;;;;;;;9.02;5.57;;;;;;;;;;4809961;29;20397;-81
2022/04/29 08:22:03;;;;;;;10.30;4.90;;;;;;;;;;4802524;29;20035;-78
2022/04/29 08:24:28;;;;;;;7.75;4.95;;;;;;;;;;4811944;29;20110;-79
2022/04/29 08:26:54;;;;;;;10.90;5.35;;;;;;;;;;4792665;29;20133;-79
2022/04/29 08:29:20;;;;;;;10.75;5.32;;;;;;;;;;4808607;29;20046;-81
2022/04/29 08:31:51;;;;;;;10.80;5.22;;;;;;;;;;4806953;29;20030;-85
2022/04/29 08:34:17;;;;;;;9.98;5.15;;;;;;;;;;4806687;29;20497;-84
2022/04/29 08:36:49;;;;;;;11.23;5.25;;;;;;;;;;4803064;29;20072;-88
2022/04/29 08:39:15;;;;;;;10.07;5.45;;;;;;;;;;4912619;24;20099;-81
2022/04/29 08:41:42;;;;;;;7.43;5.05;;;;;;;;;;4818273;29;20070;-83
2022/04/29 08:44:10;;;;;;;7.82;4.97;;;;;;;;;;4815211;29;20050;-84
2022/04/29 08:46:38;;;;;;;9.25;5.50;;;;;;;;;;4785596;29;20030;-82
2022/04/29 08:49:04;;;;;;;12.02;5.53;;;;;;;;;;4813288;29;20041;-84
2022/04/29 08:51:30;;;;;;;8.43;5.05;;;;;;;;;;4796998;29;20034;-84
2022/04/29 08:53:57;;;;;;;8.00;4.45;;;;;;;;;;4809499;29;20031;-86
2022/04/29 08:59:08;;;;;;;12.90;6.30;;;;;;;;;;4811991;29;20049;-82
2022/04/29 09:01:34;;;;;;;13.10;5.72;;;;;;;;;;4810605;29;20034;-81
2022/04/29 09:03:59;;;;;;;12.50;5.82;;;;;;;;;;4809395;29;20092;-84
2022/04/29 09:06:25;;;;;;;10.63;5.18;;;;;;;;;;4809494;29;20578;-86
2022/04/29 09:08:50;;;;;;;15.43;6.72;;;;;;;;;;4799190;29;20042;-82
2022/04/29 09:11:27;;;;;;;12.45;5.38;;;;;;;;;;4808419;29;20406;-82
2022/04/29 09:13:53;;;;;;;8.32;4.68;;;;;;;;;;4807536;29;20037;-83
2022/04/29 09:16:18;;;;;;;9.95;5.07;;;;;;;;;;4803190;29;20421;-85
2022/04/29 09:18:48;;;;;;;10.25;5.65;;;;;;;;;;4801222;29;20042;-81
2022/04/29 09:21:18;;;;;;;8.73;5.25;;;;;;;;;;4814082;29;20035;-85
2022/04/29 09:23:55;;;;;;;10.32;5.25;;;;;;;;;;4808999;29;20031;-82
2022/04/29 09:26:28;;;;;;;10.05;4.88;;;;;;;;;;4810658;29;20039;-82
2022/04/29 09:29:08;;;;;;;9.52;4.78;;;;;;;;;;4807624;29;20034;-84
2022/04/29 09:31:54;;;;;;;9.23;4.97;;;;;;;;;;4804492;29;20128;-82
2022/04/29 09:34:21;;;;;;;9.98;4.32;;;;;;;;;;4806257;29;20469;-82
2022/04/29 09:36:47;;;;;;;8.73;4.70;;;;;;;;;;4809021;29;20847;-78
2022/04/29 09:39:27;;;;;;;7.68;4.43;;;;;;;;;;4807165;29;20113;-81
2022/04/29 09:41:58;;;;;;;9.88;4.90;;;;;;;;;;4792338;29;20042;-79
2022/04/29 09:44:34;;;;;;;8.90;4.93;;;;;;;;;;4797709;29;20038;-84
2022/04/29 09:47:19;;;;;;;8.68;4.97;;;;;;;;;;4795870;29;20034;-80
2022/04/29 09:49:56;;;;;;;10.40;4.70;;;;;;;;;;4808290;29;20697;-82
2022/04/29 09:52:22;;;;;;;8.75;4.38;;;;;;;;;;4821694;29;20042;-83
2022/04/29 09:54:48;;;;;;;8.40;4.13;;;;;;;;;;4804382;29;20072;-83
2022/04/29 09:57:15;;;;;;;8.57;4.40;;;;;;;;;;4816762;29;20114;-83
2022/04/29 09:59:43;;;;;;;8.52;4.15;;;;;;;;;;4816482;29;20046;-87
2022/04/29 10:02:15;;;;;;;8.73;4.53;;;;;;;;;;4801604;29;20111;-84
2022/04/29 10:05:01;;;;;;;7.60;4.45;;;;;;;;;;4803922;29;20045;-86
2022/04/29 10:07:26;;;;;;;8.77;3.90;;;;;;;;;;4741312;29;20089;-84
2022/04/29 10:09:54;;;;;;;7.63;3.72;;;;;;;;;;4806329;29;20035;-84
2022/04/29 10:12:24;;;;;;;7.57;3.92;;;;;;;;;;4805352;29;20513;-83
2022/04/29 10:14:54;;;;;;;8.50;3.88;;;;;;;;;;4806719;29;20048;-86
2022/04/29 10:23:05;;;;;;;7.50;3.60;;;;;;;;;;4807649;29;20072;-85
2022/04/29 10:25:31;;;;;;;7.78;4.07;;;;;;;;;;4808286;29;20049;-81
2022/04/29 10:27:58;;;;;;;8.07;4.10;;;;;;;;;;4791590;29;20042;-88
2022/04/29 10:30:41;;;;;;;7.20;3.60;;;;;;;;;;4793399;29;20030;-89
2022/04/29 10:33:08;;;;;;;7.57;3.92;;;;;;;;;;4805878;29;20057;-85
2022/04/29 10:35:43;;;;;;;6.35;3.58;;;;;;;;;;4810105;29;20046;-82
2022/04/29 10:38:14;;;;;;;7.85;4.05;;;;;;;;;;4806713;29;20069;-82
2022/04/29 10:40:39;;;;;;;9.23;4.15;;;;;;;;;;4813990;29;20488;-83
2022/04/29 10:43:09;;;;;;;7.20;3.55;;;;;;;;;;4800285;29;20034;-85
2022/04/29 10:46:14;;;;;;;6.78;4.13;;;;;;;;;;4818530;29;20171;-79
2022/04/29 10:48:41;;;;;;;8.60;4.22;;;;;;;;;;4826390;29;20058;-78
2022/04/29 10:51:19;;;;;;;10.05;4.45;;;;;;;;;;4814166;29;20503;-85
2022/04/29 10:53:50;;;;;;;8.73;3.95;;;;;;;;;;4803554;29;20083;-84
2022/04/29 10:56:38;;;;;;;8.15;4.78;;;;;;;;;;4798676;29;20091;-83
2022/04/29 10:59:04;;;;;;;8.95;4.65;;;;;;;;;;4816531;29;20042;-86
2022/04/29 11:01:33;;;;;;;8.18;4.97;;;;;;;;;;4812185;29;20042;-82
2022/04/29 11:04:06;;;;;;;8.38;4.85;;;;;;;;;;4815546;29;20042;-82
2022/04/29 11:06:39;;;;;;;11.40;5.00;;;;;;;;;;4816407;29;20034;-83
2022/04/29 11:09:25;;;;;;;7.53;4.50;;;;;;;;;;4814328;29;20034;-82
2022/04/29 11:11:51;;;;;;;7.43;4.38;;;;;;;;;;4812151;29;20039;-81
2022/04/29 11:14:17;;;;;;;9.60;4.65;;;;;;;;;;4802143;29;20481;-80
2022/04/29 11:16:53;;;;;;;10.80;4.90;;;;;;;;;;4814880;29;20045;-82
2022/04/29 11:19:22;;;;;;;8.15;4.55;;;;;;;;;;4812737;29;20071;-83
2022/04/29 11:24:42;;;;;;;8.45;4.95;;;;;;;;;;4815652;29;20574;-82
2022/04/29 11:27:08;;;;;;;11.35;5.07;;;;;;;;;;4807906;29;20117;-83
2022/04/29 11:29:41;;;;;;;8.95;5.15;;;;;;;;;;4815850;29;20133;-80
2022/04/29 11:32:07;;;;;;;7.80;4.90;;;;;;;;;;4820768;29;20049;-79
2022/04/29 11:34:34;;;;;;;10.43;5.43;;;;;;;;;;4822829;29;20034;-79
2022/04/29 11:36:59;;;;;;;10.55;5.70;;;;;;;;;;4824001;29;20027;-82
2022/04/29 11:39:25;;;;;;;9.73;5.03;;;;;;;;;;4823118;29;20145;-83
2022/04/29 11:41:57;;;;;;;9.25;4.97;;;;;;;;;;4821815;29;20054;-79
2022/04/29 11:44:40;;;;;;;7.28;4.18;;;;;;;;;;4823943;29;20508;-78
2022/04/29 11:47:07;;;;;;;7.73;4.70;;;;;;;;;;4823629;29;20087;-84
2022/04/29 11:49:34;;;;;;;9.38;4.55;;;;;;;;;;4808925;29;20443;-82
2022/04/29 11:52:20;;;;;;;13.52;4.60;;;;;;;;;;4817463;29;20076;-81
2022/04/29 11:54:52;;;;;;;8.75;4.55;;;;;;;;;;4829218;29;20023;-79
2022/04/29 11:57:17;;;;;;;12.55;7.07;;;;;;;;;;4823658;29;20041;-78
2022/04/29 11:59:44;;;;;;;10.68;6.47;;;;;;;;;;4820320;29;20478;-78
2022/04/29 12:02:11;;;;;;;10.88;5.95;;;;;;;;;;4800878;29;20061;-78
2022/04/29 12:04:36;;;;;;;7.25;4.50;;;;;;;;;;4821031;29;20469;-79
2022/04/29 12:07:03;;;;;;;10.77;5.03;;;;;;;;;;4816883;29;20037;-82
2022/04/29 12:09:34;;;;;;;7.18;4.22;;;;;;;;;;4823769;29;20034;-84
2022/04/29 12:12:00;;;;;;;9.40;4.72;;;;;;;;;;4823577;29;20034;-80
2022/04/29 12:14:27;;;;;;;8.07;4.72;;;;;;;;;;4807326;29;20042;-82
2022/04/29 12:16:52;;;;;;;9.27;4.80;;;;;;;;;;4822790;29;20523;-79
2022/04/29 12:19:21;;;;;;;8.13;4.80;;;;;;;;;;4808507;29;20034;-79
2022/04/29 12:21:57;;;;;;;9.73;5.05;;;;;;;;;;4817804;29;20455;-79
2022/04/29 12:24:25;;;;;;;9.10;4.70;;;;;;;;;;4826633;29;20097;-80
2022/04/29 12:27:07;;;;;;;9.75;4.80;;;;;;;;;;4807404;29;20038;-81
2022/04/29 12:29:33;;;;;;;8.40;4.45;;;;;;;;;;4807279;29;20030;-78
2022/04/29 12:35:13;;;;;;;7.38;4.72;;;;;;;;;;4822067;29;20037;-84
2022/04/29 12:37:39;;;;;;;9.13;4.90;;;;;;;;;;4820203;29;20034;-85
2022/04/29 12:40:08;;;;;;;8.05;4.43;;;;;;;;;;4820239;29;20058;-84
2022/04/29 12:42:34;;;;;;;9.70;4.22;;;;;;;;;;4825579;29;20034;-81
2022/04/29 12:45:07;;;;;;;9.50;4.85;;;;;;;;;;4817410;29;20038;-80
2022/04/29 12:47:35;;;;;;;8.35;5.18;;;;;;;;;;4809597;29;20030;-82
2022/04/29 12:50:42;;;;;;;10.18;5.32;;;;;;;;;;4811643;29;20030;-81
2022/04/29 12:53:16;;;;;;;10.18;5.18;;;;;;;;;;4747465;30;20036;-85
2022/04/29 12:55:42;;;;;;;7.10;4.28;;;;;;;;;;4745229;30;20040;-81
2022/04/29 12:58:21;;;;;;;9.23;4.43;;;;;;;;;;4787485;29;20526;-82
2022/04/29 13:01:00;;;;;;;8.85;3.85;;;;;;;;;;4822083;29;20682;-84
2022/04/29 13:03:28;;;;;;;5.82;3.35;;;;;;;;;;4794900;29;20124;-85
2022/04/29 13:05:54;;;;;;;7.45;4.15;;;;;;;;;;4811278;29;20019;-81
2022/04/29 13:08:19;;;;;;;6.90;4.60;;;;;;;;;;4821037;29;20038;-79
2022/04/29 13:10:46;;;;;;;7.20;4.20;;;;;;;;;;4820655;29;20028;-82
2022/04/29 13:13:13;;;;;;;7.03;4.25;;;;;;;;;;4823176;29;20066;-81
2022/04/29 13:15:41;;;;;;;8.63;4.00;;;;;;;;;;4819297;29;20034;-86
2022/04/29 13:18:08;;;;;;;6.93;4.10;;;;;;;;;;4820219;29;20084;-81
2022/04/29 13:20:33;;;;;;;8.15;4.03;;;;;;;;;;4823555;29;20375;-80
2022/04/29 13:23:00;;;;;;;6.65;3.88;;;;;;;;;;4819896;29;20079;-84
2022/04/29 13:25:26;;;;;;;7.20;4.15;;;;;;;;;;4817523;29;20026;-82
2022/04/29 13:27:52;;;;;;;10.20;4.38;;;;;;;;;;4805794;29;20034;-84
2022/04/29 13:30:17;;;;;;;8.10;3.90;;;;;;;;;;4823092;29;20150;-83
2022/04/29 13:32:42;;;;;;;7.60;4.18;;;;;;;;;;4826400;29;20062;-82
2022/04/29 13:35:08;;;;;;;7.90;3.97;;;;;;;;;;4821162;29;20083;-83
2022/04/29 13:37:36;;;;;;;7.00;4.18;;;;;;;;;;4810278;29;20458;-81
2022/04/29 13:40:02;;;;;;;8.00;4.28;;;;;;;;;;4809259;29;20081;-81
2022/04/29 13:42:29;;;;;;;7.75;4.30;;;;;;;;;;4811486;29;20072;-82
2022/04/29 13:44:56;;;;;;;7.93;4.40;;;;;;;;;;4806734;29;20035;-81
2022/04/29 13:47:21;;;;;;;7.82;4.60;;;;;;;;;;4821265;29;20519;-84
2022/04/29 13:49:47;;;;;;;9.23;4.25;;;;;;;;;;4819510;29;20080;-82
2022/04/29 13:54:56;;;;;;;7.18;4.22;;;;;;;;;;4820898;29;20045;-84
2022/04/29 13:57:24;;;;;;;6.80;4.68;;;;;;;;;;4817308;29;20404;-80
2022/04/29 13:59:50;;;;;;;7.45;4.15;;;;;;;;;;4813004;29;20027;-79
2022/04/29 14:02:16;;;;;;;7.80;4.22;;;;;;;;;;4807797;29;21923;-79
2022/04/29 14:04:41;;;;;;;9.65;4.80;;;;;;;;;;4815360;29;20437;-79
2022/04/29 14:07:07;;;;;;;8.65;4.50;;;;;;;;;;4821205;29;20091;-79
2022/04/29 14:09:32;;;;;;;6.85;4.45;;;;;;;;;;4821058;29;20065;-81
2022/04/29 14:11:58;;;;;;;7.50;4.70;;;;;;;;;;4818173;29;20037;-82
2022/04/29 14:14:24;;;;;;;6.88;4.57;;;;;;;;;;4817772;29;20130;-82
2022/04/29 14:16:50;;;;;;;7.70;4.72;;;;;;;;;;4817096;29;20170;-82
2022/04/29 14:19:16;;;;;;;7.05;5.10;;;;;;;;;;4801408;29;20083;-84
2022/04/29 14:21:42;;;;;;;7.80;5.00;;;;;;;;;;4805774;29;20034;-83
2022/04/29 14:24:11;;;;;;;9.25;4.97;;;;;;;;;;4815474;29;20123;-81
2022/04/29 14:26:39;;;;;;;7.47;5.05;;;;;;;;;;4819474;29;20041;-85
2022/04/29 14:29:05;;;;;;;8.05;5.20;;;;;;;;;;4818216;29;20034;-83
2022/04/29 14:31:33;;;;;;;6.65;5.22;;;;;;;;;;4817569;29;20038;-82
2022/04/29 14:34:00;;;;;;;7.18;5.30;;;;;;;;;;4802928;29;20431;-83
2022/04/29 14:36:29;;;;;;;9.70;5.18;;;;;;;;;;4828478;29;20034;-81
2022/04/29 14:39:01;;;;;;;9.00;6.00;;;;;;;;;;4816574;29;20138;-84
2022/04/29 14:41:27;;;;;;;8.25;5.50;;;;;;;;;;4803384;29;20046;-81
2022/04/29 14:47:19;;;;;;;9.80;5.47;;;;;;;;;;4799820;29;20099;-82
2022/04/29 14:49:48;;;;;;;7.90;5.57;;;;;;;;;;4816652;29;20117;-84
2022/04/29 14:52:19;;;;;;;7.25;5.47;;;;;;;;;;4801917;29;20048;-83
2022/04/29 14:54:48;;;;;;;8.73;5.75;;;;;;;;;;4802691;29;20030;-81
2022/04/29 14:57:19;;;;;;;8.85;5.55;;;;;;;;;;4820159;29;20034;-83
2022/04/29 15:03:20;;;;;;;6.95;5.00;;;;;;;;;;4815530;29;20070;-81
2022/04/29 15:05:46;;;;;;;8.43;5.85;;;;;;;;;;4803813;29;20040;-80
2022/04/29 15:08:20;;;;;;;8.63;5.82;;;;;;;;;;4802058;29;20042;-81
2022/04/29 15:16:15;;;;;;;12.30;6.25;;;;;;;;;;4822422;29;20048;-79
2022/04/29 15:18:41;;;;;;;8.25;6.05;;;;;;;;;;4805312;29;20027;-81
2022/04/29 15:21:06;;;;;;;9.07;5.55;;;;;;;;;;4806039;29;20095;-84
2022/04/29 15:23:34;;;;;;;8.18;6.03;;;;;;;;;;4821023;29;20037;-80